Time;durP1;ratioP1;P1;durP2;ratioP2;P2;SDS_P1;SDS_P2;PMS_P1;PMS_P2;Temp;Humidity;BMP_temperature;BMP_pressure;BME280_temperature;BME280_humidity;BME280_pressure;Samples;Min_cycle;Max_cycle;Signal;HPM_P1;HPM_P2
2022/08/23 00:00:18;;;;;;;11.30;6.80;;;;;;;25.39;68.40;100364.34;2102712;28;20078;-75
2022/08/23 00:01:42;;;;;;;14.77;7.43;;;;;;;25.38;68.46;100362.59;2102916;28;20542;-75
2022/08/23 00:03:05;;;;;;;11.68;7.45;;;;;;;25.33;68.74;100364.66;2101187;28;20565;-75
2022/08/23 00:04:30;;;;;;;13.85;7.60;;;;;;;25.29;68.60;100363.94;2096024;28;20543;-74
2022/08/23 00:05:52;;;;;;;19.45;7.57;;;;;;;25.30;68.61;100367.50;2097593;28;20114;-75
2022/08/23 00:07:16;;;;;;;13.95;7.53;;;;;;;25.32;68.45;100369.19;2094738;28;20099;-75
2022/08/23 00:08:37;;;;;;;11.50;7.40;;;;;;;25.35;68.58;100365.44;2089524;28;20139;-75
2022/08/23 00:10:00;;;;;;;10.18;6.45;;;;;;;25.36;68.38;100364.50;2097071;28;20068;-75
2022/08/23 00:11:27;;;;;;;14.70;7.35;;;;;;;25.37;68.04;100367.13;2089016;28;20083;-74
2022/08/23 00:12:50;;;;;;;13.98;7.28;;;;;;;25.36;68.28;100359.97;2093256;28;20320;-75
2022/08/23 00:14:16;;;;;;;13.20;7.40;;;;;;;25.34;68.47;100367.25;2094434;28;20199;-75
2022/08/23 00:15:40;;;;;;;14.27;7.28;;;;;;;25.33;68.32;100361.97;2085564;28;20061;-75
2022/08/23 00:17:03;;;;;;;13.15;7.45;;;;;;;25.32;68.60;100358.38;2083868;28;20144;-74
2022/08/23 00:18:26;;;;;;;14.07;7.05;;;;;;;25.30;68.85;100357.56;2093948;28;20052;-74
2022/08/23 00:19:49;;;;;;;13.85;7.32;;;;;;;25.29;68.53;100353.13;2094518;28;20056;-75
2022/08/23 00:21:12;;;;;;;13.10;6.90;;;;;;;25.27;68.60;100346.06;2100606;28;20140;-75
2022/08/23 00:22:34;;;;;;;12.52;7.30;;;;;;;25.26;68.90;100349.72;2102417;28;20621;-74
2022/08/23 00:23:56;;;;;;;13.55;6.63;;;;;;;25.24;68.64;100344.38;2101587;28;20044;-74
2022/08/23 00:25:19;;;;;;;13.45;7.60;;;;;;;25.21;69.03;100351.75;2100051;28;20484;-75
2022/08/23 00:26:56;;;;;;;11.65;7.03;;;;;;;25.16;68.86;100348.41;2096087;28;20048;-74
2022/08/23 00:28:19;;;;;;;11.43;7.30;;;;;;;25.09;69.06;100347.84;2090216;28;20663;-74
2022/08/23 00:29:45;;;;;;;14.85;7.43;;;;;;;25.08;69.41;100350.63;2098209;28;20138;-74
2022/08/23 00:31:08;;;;;;;13.15;7.53;;;;;;;25.05;69.60;100350.81;2094077;28;20044;-74
2022/08/23 00:32:34;;;;;;;12.23;7.55;;;;;;;25.06;69.40;100344.44;2093072;28;20032;-74
2022/08/23 00:33:55;;;;;;;13.82;7.72;;;;;;;25.02;69.76;100341.00;2086114;28;20045;-74
2022/08/23 00:35:19;;;;;;;13.07;7.57;;;;;;;25.03;69.77;100345.47;2085420;28;20052;-75
2022/08/23 00:36:41;;;;;;;12.20;8.15;;;;;;;25.04;69.84;100338.25;2093945;28;20098;-75
2022/08/23 00:38:03;;;;;;;10.35;7.07;;;;;;;25.02;69.91;100343.72;2092354;28;20068;-75
2022/08/23 00:39:26;;;;;;;12.60;7.53;;;;;;;24.98;69.75;100347.53;2091827;28;20853;-75
2022/08/23 00:40:50;;;;;;;11.48;7.28;;;;;;;24.95;69.78;100345.84;2098243;28;20122;-75
2022/08/23 00:47:41;;;;;;;13.95;7.53;;;;;;;24.82;70.20;100344.69;2088623;28;20132;-75
2022/08/23 00:49:07;;;;;;;14.15;7.78;;;;;;;24.77;70.16;100344.03;2096424;28;20173;-74
2022/08/23 00:50:35;;;;;;;11.85;7.47;;;;;;;24.74;70.34;100343.34;2086380;28;20139;-75
2022/08/23 00:52:06;;;;;;;12.75;7.32;;;;;;;24.73;70.53;100352.38;2084176;28;20757;-75
2022/08/23 00:53:34;;;;;;;13.02;7.47;;;;;;;24.75;70.49;100345.94;2091649;28;20424;-75
2022/08/23 00:54:56;;;;;;;13.07;7.82;;;;;;;24.78;70.57;100348.50;2093881;28;20074;-75
2022/08/23 00:56:19;;;;;;;;;;;;;;;24.74;70.55;100346.91;2087435;28;20060;-75
2022/08/23 00:57:42;;;;;;;12.80;7.93;;;;;;;24.74;70.64;100346.03;2105538;28;19968;-75
2022/08/23 00:59:04;;;;;;;12.02;7.93;;;;;;;24.77;70.74;100348.56;2104308;28;20564;-75
2022/08/23 01:00:28;;;;;;;12.23;7.78;;;;;;;24.80;70.53;100351.13;2099321;28;20105;-75
2022/08/23 01:01:50;;;;;;;11.25;8.10;;;;;;;24.79;70.66;100346.69;2102663;28;20573;-75
2022/08/23 01:03:15;;;;;;;15.20;8.18;;;;;;;24.80;70.95;100349.31;2090318;28;20053;-75
2022/08/23 01:04:41;;;;;;;14.27;8.48;;;;;;;24.83;70.95;100350.97;2089917;28;20048;-75
2022/08/23 01:06:10;;;;;;;12.27;7.93;;;;;;;24.84;70.78;100356.28;2092904;28;20048;-75
2022/08/23 01:07:46;;;;;;;14.18;7.88;;;;;;;24.86;70.76;100357.09;2090739;28;20045;-75
2022/08/23 01:09:13;;;;;;;10.55;7.78;;;;;;;24.86;70.87;100361.63;2095218;28;20496;-76
2022/08/23 01:10:40;;;;;;;15.90;8.38;;;;;;;24.87;70.92;100355.28;2103746;28;20527;-76
2022/08/23 01:12:07;;;;;;;10.57;7.90;;;;;;;24.86;70.71;100359.81;2086400;28;20084;-75
2022/08/23 01:13:36;;;;;;;13.02;8.63;;;;;;;24.87;70.60;100356.16;2096613;28;20436;-75
2022/08/23 01:15:02;;;;;;;14.90;7.82;;;;;;;24.84;70.80;100352.72;2086119;28;20057;-75
2022/08/23 01:16:32;;;;;;;13.43;8.13;;;;;;;24.82;70.74;100351.91;2093968;28;20135;-75
2022/08/23 01:18:02;;;;;;;13.15;8.13;;;;;;;24.73;70.93;100346.97;2094456;28;20056;-75
2022/08/23 01:19:28;;;;;;;13.77;7.85;;;;;;;24.71;71.28;100348.88;2094955;28;20126;-75
2022/08/23 01:20:56;;;;;;;14.18;8.50;;;;;;;24.72;71.25;100350.63;2092380;28;20164;-76
2022/08/23 01:22:26;;;;;;;11.88;7.45;;;;;;;24.73;71.34;100346.97;2094230;28;20135;-74
2022/08/23 01:23:53;;;;;;;16.92;8.15;;;;;;;24.75;71.05;100350.47;2087559;28;20540;-75
2022/08/23 01:25:20;;;;;;;12.45;8.05;;;;;;;24.75;71.35;100348.63;2084911;28;20059;-75
2022/08/23 01:26:44;;;;;;;15.30;8.30;;;;;;;24.77;71.43;100345.88;2083989;28;20048;-74
2022/08/23 01:28:07;;;;;;;13.15;8.48;;;;;;;24.78;71.48;100344.91;2083342;28;20142;-75
2022/08/23 01:29:28;;;;;;;13.15;8.18;;;;;;;24.83;71.48;100346.44;2086333;28;20045;-75
2022/08/23 01:30:51;;;;;;;13.07;8.35;;;;;;;24.91;71.38;100340.69;2087100;28;20056;-75
2022/08/23 01:32:13;;;;;;;14.13;8.55;;;;;;;24.97;71.23;100335.84;2085134;28;20463;-75
2022/08/23 01:33:38;;;;;;;11.57;8.07;;;;;;;25.02;71.28;100341.00;2085026;28;20060;-75
2022/08/23 01:35:01;;;;;;;14.20;7.82;;;;;;;25.01;71.05;100337.44;2091931;28;20578;-75
2022/08/23 01:36:24;;;;;;;14.38;7.90;;;;;;;25.04;71.32;100340.94;2083709;28;20033;-75
2022/08/23 01:37:46;;;;;;;12.27;7.80;;;;;;;25.01;71.58;100344.66;2076184;28;20559;-75
2022/08/23 01:39:11;;;;;;;12.02;7.57;;;;;;;24.98;71.41;100337.59;2074983;28;20053;-75
2022/08/23 01:40:34;;;;;;;12.10;8.05;;;;;;;25.02;71.60;100338.31;2092840;28;20040;-75
2022/08/23 01:41:56;;;;;;;15.10;8.57;;;;;;;25.08;71.74;100335.28;2085260;28;20127;-75
2022/08/23 01:43:20;;;;;;;12.27;7.13;;;;;;;25.15;71.45;100344.84;2077443;28;20383;-75
2022/08/23 01:44:44;;;;;;;13.85;8.30;;;;;;;25.20;71.24;100342.81;2090923;28;20040;-75
2022/08/23 01:46:12;;;;;;;15.73;8.13;;;;;;;25.26;71.42;100347.88;2093834;28;20056;-74
2022/08/23 01:47:33;;;;;;;11.65;7.57;;;;;;;25.29;71.08;100346.84;2086459;28;20049;-75
2022/08/23 01:48:57;;;;;;;11.70;7.28;;;;;;;25.27;71.01;100349.59;2082740;28;20044;-74
2022/08/23 01:50:21;;;;;;;10.15;7.78;;;;;;;25.29;71.34;100353.13;2082400;28;20048;-75
2022/08/23 01:51:44;;;;;;;11.82;7.32;;;;;;;25.32;71.12;100342.16;2085552;28;20041;-74
2022/08/23 01:53:07;;;;;;;12.15;7.45;;;;;;;25.34;71.09;100347.47;2078535;28;20171;-74
2022/08/23 01:54:31;;;;;;;12.32;7.70;;;;;;;25.32;71.13;100352.97;2085617;28;20149;-74
2022/08/23 01:55:54;;;;;;;13.48;8.13;;;;;;;25.33;71.20;100348.44;2075334;28;20160;-74
2022/08/23 01:57:16;;;;;;;13.23;7.82;;;;;;;25.36;71.17;100350.97;2080944;28;20144;-74
2022/08/23 01:58:39;;;;;;;;;;;;;;;25.35;71.08;100355.50;2074717;28;20138;-74
2022/08/23 02:00:01;;;;;;;12.40;7.57;;;;;;;25.37;70.98;100355.44;2088862;28;19948;-74
2022/08/23 02:01:25;;;;;;;12.60;7.95;;;;;;;25.37;70.93;100353.59;2088119;28;20097;-74
2022/08/23 02:02:48;;;;;;;15.18;8.63;;;;;;;25.38;71.27;100357.19;2092072;28;20047;-74
2022/08/23 02:04:11;;;;;;;11.57;7.45;;;;;;;25.36;71.31;100342.88;2081332;28;20038;-74
2022/08/23 02:05:33;;;;;;;14.57;7.85;;;;;;;25.35;71.32;100344.69;2076625;28;20060;-74
2022/08/23 02:06:56;;;;;;;12.50;7.93;;;;;;;25.32;71.56;100347.56;2084527;28;20045;-74
2022/08/23 02:10:03;;;;;;;11.50;7.90;;;;;;;25.25;71.51;100338.03;2093017;28;20139;-74
2022/08/23 02:11:25;;;;;;;11.70;7.88;;;;;;;25.24;71.60;100341.69;2086408;28;20533;-74
2022/08/23 02:12:49;;;;;;;13.50;7.72;;;;;;;25.21;71.63;100344.53;2086652;28;20049;-74
2022/08/23 02:14:14;;;;;;;12.95;8.02;;;;;;;25.19;71.66;100337.47;2078054;28;20498;-74
2022/08/23 02:15:45;;;;;;;13.43;7.85;;;;;;;25.14;71.76;100337.69;2094475;28;20056;-74
2022/08/23 02:17:07;;;;;;;16.08;8.15;;;;;;;25.12;72.02;100344.13;2081017;28;20041;-74
2022/08/23 02:18:30;;;;;;;12.57;8.07;;;;;;;25.08;71.88;100342.53;2083989;28;20033;-74
2022/08/23 02:19:54;;;;;;;11.55;8.25;;;;;;;25.04;71.94;100346.34;2091411;28;20048;-74
2022/08/23 02:21:16;;;;;;;13.18;8.55;;;;;;;24.99;72.13;100333.97;2093948;28;20054;-75
2022/08/23 02:22:40;;;;;;;15.68;8.60;;;;;;;24.98;72.59;100347.53;2091077;28;20049;-74
2022/08/23 02:24:05;;;;;;;12.30;8.25;;;;;;;24.96;72.49;100338.63;2081400;28;20053;-74
2022/08/23 02:25:29;;;;;;;11.38;8.07;;;;;;;24.95;72.40;100343.16;2078211;28;20507;-74
2022/08/23 02:27:05;;;;;;;14.02;8.65;;;;;;;24.96;72.35;100344.91;2081803;28;20040;-75
2022/08/23 02:28:31;;;;;;;13.88;9.57;;;;;;;24.94;72.57;100346.78;2091061;28;20102;-75
2022/08/23 02:29:54;;;;;;;13.80;8.43;;;;;;;24.93;72.60;100355.00;2086533;28;20130;-75
2022/08/23 02:31:15;;;;;;;16.15;8.80;;;;;;;24.94;72.87;100345.97;2080815;28;20061;-75
2022/08/23 02:32:38;;;;;;;16.60;8.55;;;;;;;24.94;73.01;100356.75;2089973;28;20040;-75
2022/08/23 02:34:00;;;;;;;14.15;8.25;;;;;;;24.93;72.70;100350.47;2086130;28;20545;-74
2022/08/23 02:35:24;;;;;;;13.20;8.45;;;;;;;24.92;72.81;100355.94;2084590;28;20529;-75
2022/08/23 02:36:46;;;;;;;14.32;8.70;;;;;;;24.91;72.91;100356.91;2078721;28;20060;-74
2022/08/23 02:38:11;;;;;;;16.08;8.70;;;;;;;24.88;73.12;100354.31;2083447;28;20044;-74
2022/08/23 02:39:34;;;;;;;13.98;8.90;;;;;;;24.85;72.96;100358.06;2081801;28;20045;-74
2022/08/23 02:40:57;;;;;;;13.88;8.65;;;;;;;24.83;73.13;100359.06;2088522;28;20044;-74
2022/08/23 02:42:20;;;;;;;13.25;8.25;;;;;;;24.80;73.19;100359.22;2081105;28;20124;-75
2022/08/23 02:43:41;;;;;;;12.48;8.70;;;;;;;24.74;73.19;100357.72;2082189;28;20405;-75
2022/08/23 02:45:07;;;;;;;;;;;;;;;24.63;73.61;100358.22;2079475;28;20045;-75
2022/08/23 02:46:33;;;;;;;14.65;9.02;;;;;;;24.58;73.55;100368.38;2085252;28;19921;-75
2022/08/23 02:47:56;;;;;;;17.00;9.27;;;;;;;24.59;73.98;100366.56;2090017;28;20332;-75
2022/08/23 02:49:22;;;;;;;13.00;8.63;;;;;;;24.60;73.88;100365.59;2086630;28;20115;-74
2022/08/23 02:50:45;;;;;;;13.48;8.45;;;;;;;24.62;73.91;100361.88;2090049;28;20120;-74
2022/08/23 02:52:08;;;;;;;12.32;8.15;;;;;;;24.65;73.79;100371.66;2084799;28;20388;-75
2022/08/23 02:53:31;;;;;;;13.75;8.70;;;;;;;24.67;73.35;100368.88;2081863;28;20115;-75
2022/08/23 02:54:52;;;;;;;13.95;8.95;;;;;;;24.68;73.68;100362.53;2083181;28;20497;-75
2022/08/23 02:56:17;;;;;;;14.55;9.05;;;;;;;24.69;73.48;100370.53;2075831;28;20049;-75
2022/08/23 02:57:39;;;;;;;12.77;8.18;;;;;;;24.68;73.60;100370.63;2082004;28;20041;-75
2022/08/23 02:59:02;;;;;;;13.80;8.93;;;;;;;24.68;73.59;100371.47;2086627;28;20052;-75
2022/08/23 03:00:25;;;;;;;12.70;9.07;;;;;;;24.68;73.52;100379.59;2083784;28;20508;-75
2022/08/23 03:01:48;;;;;;;12.70;8.80;;;;;;;24.67;73.95;100379.69;2069543;28;20103;-75
2022/08/23 03:03:24;;;;;;;12.82;8.73;;;;;;;24.63;73.76;100387.03;2079118;28;20168;-75
2022/08/23 03:04:47;;;;;;;12.57;8.60;;;;;;;24.59;74.00;100383.63;2087655;28;20123;-75
2022/08/23 03:06:08;;;;;;;15.32;9.20;;;;;;;24.57;74.28;100388.22;2090046;28;20040;-75
2022/08/23 03:07:31;;;;;;;13.38;8.88;;;;;;;24.57;74.29;100388.22;2094922;28;20040;-75
2022/08/23 03:08:54;;;;;;;15.05;8.60;;;;;;;24.57;74.24;100390.03;2085975;28;20072;-75
2022/08/23 03:10:16;;;;;;;14.30;7.80;;;;;;;24.56;74.20;100393.69;2078196;28;20557;-75
2022/08/23 03:11:48;;;;;;;12.82;7.53;;;;;;;24.56;74.40;100393.69;2090321;28;20489;-74
2022/08/23 03:13:11;;;;;;;14.90;8.65;;;;;;;24.55;74.54;100400.03;2089818;28;20056;-74
2022/08/23 03:14:34;;;;;;;12.77;8.60;;;;;;;24.53;74.59;100397.41;2082073;28;20056;-74
2022/08/23 03:15:56;;;;;;;15.75;8.73;;;;;;;24.52;74.56;100402.88;2074930;28;20469;-74
2022/08/23 03:17:19;;;;;;;12.85;7.28;;;;;;;24.51;74.38;100406.53;2092290;28;20040;-74
2022/08/23 03:18:42;;;;;;;12.10;6.90;;;;;;;24.49;74.75;100403.91;2083473;28;20474;-74
2022/08/23 03:20:07;;;;;;;12.63;6.70;;;;;;;24.51;74.52;100407.41;2084009;28;20171;-74
2022/08/23 03:21:30;;;;;;;11.85;7.20;;;;;;;24.53;74.50;100407.34;2084927;28;20098;-75
2022/08/23 03:22:52;;;;;;;;;;;;;;;24.49;74.21;100408.41;2087146;28;20041;-74
2022/08/23 03:24:15;;;;;;;17.92;7.72;;;;;;;24.48;74.53;100412.94;2083216;28;19971;-74
2022/08/23 03:25:37;;;;;;;13.25;8.18;;;;;;;24.50;74.60;100410.16;2077522;28;20067;-74
2022/08/23 03:27:18;;;;;;;14.82;8.45;;;;;;;24.50;74.59;100410.16;2085128;28;20144;-75
2022/08/23 03:28:41;;;;;;;13.57;7.28;;;;;;;24.50;74.28;100411.03;2087713;28;20040;-75
2022/08/23 03:30:06;;;;;;;13.95;6.72;;;;;;;24.50;74.63;100408.34;2081711;28;20076;-74
2022/08/23 03:31:29;;;;;;;11.20;5.43;;;;;;;24.50;74.52;100418.28;2080930;28;20600;-75
2022/08/23 03:33:05;;;;;;;12.20;7.07;;;;;;;24.48;74.42;100417.50;2091614;28;20396;-75
2022/08/23 03:34:27;;;;;;;15.88;6.50;;;;;;;24.49;74.51;100416.50;2086118;28;20041;-75
2022/08/23 03:35:50;;;;;;;13.65;7.45;;;;;;;24.47;74.40;100422.00;2087992;28;20049;-75
2022/08/23 03:37:13;;;;;;;13.55;7.43;;;;;;;24.43;74.37;100425.78;2085862;28;20048;-75
2022/08/23 03:38:38;;;;;;;14.15;7.88;;;;;;;24.41;74.79;100426.81;2092045;28;20086;-75
2022/08/23 03:40:03;;;;;;;15.38;8.85;;;;;;;24.40;74.60;100436.72;2093535;28;20075;-74
2022/08/23 03:41:26;;;;;;;13.30;7.43;;;;;;;24.38;74.77;100430.53;2084841;28;20049;-75
2022/08/23 03:42:51;;;;;;;15.57;8.15;;;;;;;24.35;74.97;100436.03;2090330;28;20567;-74
2022/08/23 03:44:17;;;;;;;15.57;7.47;;;;;;;24.33;74.88;100440.66;2087852;28;20052;-74
2022/08/23 03:45:40;;;;;;;15.95;7.47;;;;;;;24.33;75.18;100440.66;2092725;28;20135;-75
2022/08/23 03:47:04;;;;;;;13.27;6.97;;;;;;;24.32;75.05;100447.00;2087397;28;20051;-75
2022/08/23 03:48:27;;;;;;;12.23;7.15;;;;;;;24.29;75.06;100452.53;2097246;28;20056;-75
2022/08/23 03:49:48;;;;;;;13.98;6.82;;;;;;;24.25;75.03;100447.34;2086205;28;20087;-75
2022/08/23 03:51:11;;;;;;;15.20;7.60;;;;;;;24.21;75.16;100452.03;2094608;28;20041;-75
2022/08/23 03:52:35;;;;;;;10.73;6.78;;;;;;;24.19;75.65;100453.91;2094785;28;20032;-75
2022/08/23 03:53:58;;;;;;;14.57;7.05;;;;;;;24.25;75.72;100448.22;2091953;28;20076;-75
2022/08/23 03:55:21;;;;;;;14.10;7.47;;;;;;;24.29;75.20;100443.56;2091246;28;20148;-74
2022/08/23 03:56:52;;;;;;;13.88;7.78;;;;;;;24.33;75.06;100448.75;2084686;28;20118;-74
2022/08/23 03:58:18;;;;;;;11.65;7.38;;;;;;;24.38;75.24;100452.13;2085305;28;20150;-74
2022/08/23 03:59:41;;;;;;;17.38;7.63;;;;;;;24.42;74.89;100458.22;2091302;28;20453;-74
2022/08/23 04:01:06;;;;;;;11.43;6.90;;;;;;;24.43;74.70;100438.41;2097196;28;20487;-74
2022/08/23 04:02:29;;;;;;;16.05;7.90;;;;;;;24.43;74.70;100444.66;2092748;28;20102;-74
2022/08/23 04:03:51;;;;;;;13.20;6.93;;;;;;;24.44;74.75;100441.03;2082317;28;20052;-74
2022/08/23 04:05:14;;;;;;;13.68;7.20;;;;;;;24.45;74.79;100450.00;2084144;28;20044;-74
2022/08/23 04:06:45;;;;;;;10.40;6.43;;;;;;;24.48;74.62;100449.88;2093958;28;20447;-74
2022/08/23 04:08:09;;;;;;;14.23;6.15;;;;;;;24.52;74.73;100446.06;2086383;28;20057;-74
2022/08/23 04:09:34;;;;;;;15.45;6.10;;;;;;;24.58;74.85;100452.06;2095831;28;20389;-74
2022/08/23 04:10:56;;;;;;;11.45;6.07;;;;;;;24.66;74.78;100450.81;2094747;28;20041;-74
2022/08/23 04:12:21;;;;;;;13.48;6.35;;;;;;;24.73;75.08;100455.88;2091658;28;20091;-74
2022/08/23 04:13:45;;;;;;;15.20;6.38;;;;;;;24.80;74.98;100451.94;2092151;28;20037;-74
2022/08/23 04:15:08;;;;;;;11.50;6.50;;;;;;;24.87;75.27;100458.78;2089571;28;20044;-74
2022/08/23 04:16:36;;;;;;;13.00;6.80;;;;;;;24.93;75.29;100460.34;2089635;28;20040;-74
2022/08/23 04:17:58;;;;;;;12.38;6.63;;;;;;;25.00;75.22;100457.28;2093419;28;20048;-74
2022/08/23 04:19:21;;;;;;;10.68;6.30;;;;;;;25.07;75.30;100451.56;2083396;28;20049;-74
2022/08/23 04:20:57;;;;;;;11.15;5.95;;;;;;;25.17;74.91;100452.84;2094962;28;20076;-74
2022/08/23 04:22:20;;;;;;;13.32;5.97;;;;;;;25.25;74.65;100458.75;2087677;28;20079;-74
2022/08/23 04:23:43;;;;;;;12.18;6.18;;;;;;;25.34;74.70;100453.75;2097196;28;20073;-75
2022/08/23 04:25:07;;;;;;;10.52;5.60;;;;;;;25.42;74.25;100451.53;2086079;28;20037;-74
2022/08/23 04:26:29;;;;;;;9.23;4.82;;;;;;;25.51;74.07;100449.34;2085211;28;20139;-74
2022/08/23 04:27:51;;;;;;;12.65;4.72;;;;;;;25.61;74.24;100450.63;2082647;28;20048;-75
2022/08/23 04:29:16;;;;;;;8.07;4.43;;;;;;;25.71;73.89;100454.63;2092227;28;20052;-74
2022/08/23 04:30:41;;;;;;;13.68;5.00;;;;;;;25.83;73.91;100455.81;2088934;28;20041;-74
2022/08/23 04:32:03;;;;;;;9.27;5.28;;;;;;;25.95;73.70;100460.56;2094781;28;20642;-74
2022/08/23 04:33:27;;;;;;;11.05;6.10;;;;;;;26.06;73.38;100450.06;2082747;28;20049;-74
2022/08/23 04:34:50;;;;;;;12.25;5.32;;;;;;;26.16;72.90;100454.91;2077666;28;20055;-74
2022/08/23 04:36:11;;;;;;;10.68;5.00;;;;;;;26.26;72.72;100454.44;2081996;28;20505;-75
2022/08/23 04:37:35;;;;;;;8.88;4.90;;;;;;;26.32;72.29;100454.13;2085977;28;20037;-74
2022/08/23 04:38:58;;;;;;;13.90;4.72;;;;;;;26.34;72.06;100454.91;2105244;28;20058;-75
2022/08/23 04:42:17;;;;;;;10.40;5.25;;;;;;;26.40;71.69;100458.13;2095131;28;20052;-75
2022/08/23 04:43:42;;;;;;;13.07;4.68;;;;;;;26.55;71.43;100462.72;2088071;28;20041;-75
2022/08/23 04:45:10;;;;;;;8.85;4.55;;;;;;;26.70;71.11;100458.31;2086446;28;20037;-75
2022/08/23 04:46:36;;;;;;;11.80;4.30;;;;;;;26.87;71.04;100457.34;2099394;28;20051;-75
2022/08/23 04:47:59;;;;;;;11.20;4.30;;;;;;;27.02;70.37;100453.78;2083633;28;20049;-75
2022/08/23 04:49:23;;;;;;;8.20;3.90;;;;;;;27.16;69.99;100448.47;2083615;28;20064;-75
2022/08/23 04:50:44;;;;;;;9.07;4.07;;;;;;;27.30;69.57;100453.94;2082768;28;20040;-75
2022/08/23 04:52:13;;;;;;;10.63;5.38;;;;;;;27.46;69.25;100453.91;2083345;28;20045;-75
2022/08/23 04:53:35;;;;;;;13.90;4.72;;;;;;;27.60;68.69;100456.72;2082452;28;20044;-75
2022/08/23 04:55:19;;;;;;;11.35;4.85;;;;;;;27.76;68.08;100448.53;2097005;28;20106;-74
2022/08/23 04:56:45;;;;;;;11.73;5.07;;;;;;;27.90;67.72;100453.97;2088451;28;20421;-75
2022/08/23 04:58:08;;;;;;;10.43;4.88;;;;;;;28.05;67.66;100450.31;2086011;28;20049;-75
2022/08/23 04:59:40;;;;;;;9.38;4.35;;;;;;;28.22;67.22;100460.19;2086035;28;20043;-75
2022/08/23 05:01:06;;;;;;;9.27;4.53;;;;;;;28.37;66.76;100456.50;2083306;28;20053;-75
2022/08/23 05:02:29;;;;;;;10.75;4.30;;;;;;;28.52;66.48;100458.25;2080536;28;20489;-75
2022/08/23 05:03:51;;;;;;;13.30;3.97;;;;;;;28.68;65.99;100460.88;2092422;28;20104;-75
2022/08/23 05:05:14;;;;;;;11.07;4.30;;;;;;;28.83;65.63;100459.91;2081975;28;20076;-75
2022/08/23 05:06:40;;;;;;;11.93;4.22;;;;;;;29.02;65.08;100455.97;2077717;28;20068;-75
2022/08/23 05:08:01;;;;;;;8.77;4.38;;;;;;;29.14;64.34;100463.34;2085832;28;20075;-76
2022/08/23 05:09:24;;;;;;;10.93;3.60;;;;;;;29.29;63.78;100456.84;2080937;28;20449;-75
2022/08/23 05:10:47;;;;;;;9.18;3.53;;;;;;;29.44;63.36;100457.72;2086048;28;20044;-75
2022/08/23 05:12:10;;;;;;;8.57;3.75;;;;;;;29.59;63.00;100452.13;2082238;28;20049;-75
2022/08/23 05:13:32;;;;;;;8.82;3.65;;;;;;;29.75;62.21;100460.09;2082943;28;20048;-75
2022/08/23 05:14:56;;;;;;;10.55;4.05;;;;;;;29.86;62.16;100446.63;2082930;28;20060;-75
2022/08/23 05:16:20;;;;;;;6.80;3.13;;;;;;;29.95;61.31;100459.63;2075578;28;20049;-76
2022/08/23 05:17:52;;;;;;;10.15;3.33;;;;;;;30.05;61.29;100463.47;2095324;28;20043;-75
2022/08/23 05:19:13;;;;;;;9.10;3.25;;;;;;;30.16;61.09;100464.53;2086121;28;20083;-75
2022/08/23 05:20:42;;;;;;;7.82;3.08;;;;;;;30.28;60.87;100463.66;2092867;28;20052;-75
2022/08/23 05:22:04;;;;;;;8.68;3.35;;;;;;;30.47;60.32;100472.28;2085918;28;20139;-75
2022/08/23 05:23:47;;;;;;;7.00;2.97;;;;;;;30.72;59.51;100468.69;2094988;28;20062;-75
2022/08/23 05:25:14;;;;;;;10.30;3.22;;;;;;;30.88;59.27;100470.19;2085876;28;20045;-75
2022/08/23 05:26:36;;;;;;;8.93;2.90;;;;;;;31.06;58.78;100472.56;2081452;28;20152;-75
2022/08/23 05:27:58;;;;;;;10.85;2.75;;;;;;;31.22;58.32;100470.44;2085617;28;20388;-75
2022/08/23 05:29:21;;;;;;;8.57;2.70;;;;;;;31.36;57.58;100470.28;2082606;28;20145;-75
2022/08/23 05:30:45;;;;;;;9.95;2.70;;;;;;;31.51;56.58;100473.69;2085845;28;20071;-75
2022/08/23 05:32:09;;;;;;;;;;;;;;;31.57;56.07;100470.50;2084795;28;20136;-76
2022/08/23 05:33:31;;;;;;;7.70;2.50;;;;;;;31.72;55.93;100469.34;2089357;28;19932;-75
2022/08/23 05:34:54;;;;;;;6.28;1.60;;;;;;;31.83;55.46;100472.13;2090567;28;20072;-75
2022/08/23 05:36:17;;;;;;;9.60;2.15;;;;;;;31.98;54.98;100475.50;2083918;28;20041;-75
2022/08/23 05:37:40;;;;;;;10.90;2.22;;;;;;;32.14;54.64;100469.75;2088036;28;20489;-75
2022/08/23 05:39:03;;;;;;;6.65;1.77;;;;;;;32.33;53.97;100468.19;2090019;28;20048;-75
2022/08/23 05:40:28;;;;;;;6.05;2.38;;;;;;;32.51;53.33;100467.69;2090803;28;20155;-75
2022/08/23 05:42:00;;;;;;;7.50;2.28;;;;;;;32.68;52.58;100464.50;2093783;28;20499;-75
2022/08/23 05:43:24;;;;;;;8.95;2.85;;;;;;;32.83;51.88;100468.72;2094095;28;20603;-75
2022/08/23 05:44:47;;;;;;;10.75;2.55;;;;;;;32.92;51.51;100465.22;2088921;28;20063;-75
2022/08/23 05:46:12;;;;;;;9.40;2.40;;;;;;;33.08;51.23;100464.84;2086666;28;20059;-75
2022/08/23 05:47:39;;;;;;;7.18;2.33;;;;;;;33.27;50.72;100466.94;2094609;28;20869;-75
2022/08/23 05:49:15;;;;;;;8.18;2.25;;;;;;;33.44;49.94;100467.25;2094383;28;20094;-75
2022/08/23 05:50:38;;;;;;;9.43;2.08;;;;;;;33.59;49.24;100465.09;2085562;28;20033;-75
2022/08/23 05:52:03;;;;;;;6.47;2.20;;;;;;;33.68;47.94;100464.28;2083162;28;20144;-75
2022/08/23 05:53:26;;;;;;;10.60;2.00;;;;;;;33.79;47.00;100469.78;2085482;28;20488;-75
2022/08/23 05:54:49;;;;;;;10.82;2.40;;;;;;;33.86;46.08;100461.91;2085109;28;20056;-75
2022/08/23 05:56:47;;;;;;;6.68;2.00;;;;;;;33.91;46.15;100467.84;2071493;28;20072;-74
2022/08/23 05:58:11;;;;;;;6.57;2.00;;;;;;;34.00;46.00;100478.00;2050882;28;20047;-75
2022/08/23 05:59:33;;;;;;;7.03;2.00;;;;;;;34.10;45.54;100475.31;2082692;28;20048;-75
2022/08/23 06:00:55;;;;;;;7.32;2.05;;;;;;;34.15;45.25;100473.03;2084627;28;20049;-75
2022/08/23 06:02:19;;;;;;;6.38;2.08;;;;;;;34.23;45.08;100474.16;2084181;28;20039;-75
2022/08/23 06:03:44;;;;;;;7.65;2.83;;;;;;;34.33;45.15;100476.97;2085995;28;20051;-74
2022/08/23 06:05:07;;;;;;;7.88;2.50;;;;;;;34.40;45.35;100481.75;2090187;28;20052;-75
2022/08/23 06:06:30;;;;;;;9.63;3.08;;;;;;;34.50;45.17;100476.34;2093416;28;20078;-75
2022/08/23 06:07:52;;;;;;;9.02;3.13;;;;;;;34.60;44.89;100469.00;2099165;28;20044;-75
2022/08/23 06:09:19;;;;;;;8.15;3.13;;;;;;;34.73;44.54;100477.91;2094174;28;20060;-75
2022/08/23 06:10:41;;;;;;;8.70;2.95;;;;;;;34.77;44.24;100479.38;2083398;28;20052;-75
2022/08/23 06:12:14;;;;;;;7.95;3.53;;;;;;;34.85;44.15;100473.22;2090211;28;20079;-75
2022/08/23 06:13:40;;;;;;;9.70;3.60;;;;;;;34.91;43.61;100472.66;2086070;28;20326;-75
2022/08/23 06:15:03;;;;;;;7.45;3.60;;;;;;;34.86;43.40;100469.44;2100201;28;20052;-75
2022/08/23 06:16:27;;;;;;;9.27;3.38;;;;;;;34.85;43.25;100469.59;2088709;28;20040;-75
2022/08/23 06:17:49;;;;;;;8.05;4.53;;;;;;;34.76;42.97;100471.28;2085646;28;20083;-75
2022/08/23 06:19:14;;;;;;;8.30;3.63;;;;;;;34.60;43.36;100468.13;2086246;28;20040;-75
2022/08/23 06:20:42;;;;;;;9.80;3.55;;;;;;;34.40;43.77;100468.03;2098963;28;20079;-75
2022/08/23 06:22:10;;;;;;;6.05;3.30;;;;;;;34.27;43.87;100459.16;2092102;28;20040;-74
2022/08/23 06:23:37;;;;;;;7.15;3.35;;;;;;;34.25;44.14;100458.44;2086571;28;20466;-74
2022/08/23 06:25:00;;;;;;;8.50;3.88;;;;;;;34.34;44.18;100462.22;2086447;28;20172;-74
2022/08/23 06:26:40;;;;;;;12.15;4.22;;;;;;;34.45;43.81;100459.44;2094556;28;20044;-73
2022/08/23 06:28:02;;;;;;;10.77;4.28;;;;;;;34.43;43.53;100452.31;2087649;28;20080;-73
2022/08/23 06:29:25;;;;;;;9.52;3.55;;;;;;;34.40;43.66;100451.59;2086983;28;20055;-75
2022/08/23 06:31:07;;;;;;;;;;;;;;;34.39;44.01;100455.38;2101305;28;20056;-75
2022/08/23 06:32:32;;;;;;;7.72;3.53;;;;;;;34.62;43.84;100452.41;2085225;28;19963;-74
2022/08/23 06:34:17;;;;;;;10.63;3.95;;;;;;;34.79;43.62;100460.03;2095745;28;20062;-74
2022/08/23 06:36:05;;;;;;;10.05;3.80;;;;;;;34.95;43.16;100460.38;2087794;28;20060;-74
2022/08/23 06:37:50;;;;;;;10.52;3.55;;;;;;;35.01;43.20;100458.94;2090971;28;20090;-73
2022/08/23 06:39:39;;;;;;;10.57;4.20;;;;;;;35.06;42.70;100465.75;2095822;28;20050;-74
2022/08/23 06:41:14;;;;;;;9.32;3.67;;;;;;;35.05;42.41;100464.00;2081779;28;20181;-74
2022/08/23 06:42:57;;;;;;;;;;;;;;;35.01;42.66;100476.28;2090401;28;20044;-74